Terminal Aerodrome Forecast
Issued by NWS Shreveport, LA

Home | Current Version | Previous Version | Text Only | Print | Product List | Glossary On
Versions: 1 2 3 4 5 6 7 8 9 10 11 12 13 14 15 16 17
000
FTUS44 KSHV 260500
TAFTXK
TAF
KTXK 260520Z 2606/2706 19005KT P6SM SCT150 BKN250
     FM261500 23012G18KT P6SM SCT250
     FM261800 27014G22KT P6SM SKC
     FM262300 30010KT P6SM SKC=

USA.gov is the U.S. government's official web portal to all federal, state and local government web resources and services.